createdAt,value
2018-10-16T00:00:17.831Z,71.04
2018-10-16T00:01:17.840Z,71.47
2018-10-16T00:02:17.844Z,71.21
2018-10-16T00:03:18.406Z,71.08
2018-10-16T00:04:17.885Z,71.35
2018-10-16T00:05:18.032Z,70.7
2018-10-16T00:06:17.924Z,70.39
2018-10-16T00:07:17.891Z,71.29
2018-10-16T00:08:18.036Z,71.15
2018-10-16T00:09:17.813Z,71.3
2018-10-16T00:10:18.038Z,71.04
2018-10-16T00:11:17.841Z,70.82
2018-10-16T00:12:18.050Z,70.66
2018-10-16T00:13:18.270Z,70.7
2018-10-16T00:14:17.734Z,71.04
2018-10-16T00:15:17.969Z,70.69
2018-10-16T00:16:17.977Z,70.85
2018-10-16T00:17:17.820Z,70.54
2018-10-16T00:18:18.236Z,70.87
2018-10-16T00:19:18.223Z,70.71
2018-10-16T00:20:17.851Z,70.76
2018-10-16T00:21:18.030Z,71.51
2018-10-16T00:22:17.909Z,71.17
2018-10-16T00:23:18.006Z,71.55
2018-10-16T00:24:18.024Z,71.71
2018-10-16T00:25:17.907Z,71.71
2018-10-16T00:26:17.888Z,71.73
2018-10-16T00:27:17.888Z,71.52
2018-10-16T00:28:17.988Z,71.49
2018-10-16T00:29:17.809Z,71.47
2018-10-16T00:30:17.872Z,71.79
2018-10-16T00:31:17.926Z,70.92
2018-10-16T00:32:17.826Z,72.1
2018-10-16T00:33:18.203Z,72.08
2018-10-16T00:34:17.979Z,71.9
2018-10-16T00:35:17.944Z,71.68
2018-10-16T00:36:17.788Z,72.05
2018-10-16T00:37:17.940Z,71.68
2018-10-16T00:38:18.006Z,71.79
2018-10-16T00:39:17.874Z,71.53
2018-10-16T00:40:18.125Z,71.56
2018-10-16T00:41:18.021Z,72.02
2018-10-16T00:42:18.238Z,72.04
2018-10-16T00:43:17.996Z,72.15
2018-10-16T00:44:17.890Z,72
2018-10-16T00:45:18.007Z,72
2018-10-16T00:46:17.797Z,72.18
2018-10-16T00:47:18.085Z,72.29
2018-10-16T00:48:17.897Z,71.99
2018-10-16T00:49:17.806Z,72.11
2018-10-16T00:50:18.455Z,72.01
2018-10-16T00:51:17.847Z,71.92
2018-10-16T00:52:17.842Z,72.12
2018-10-16T00:53:18.258Z,72.16
2018-10-16T00:54:18.025Z,72.27
2018-10-16T00:55:17.781Z,72.28
2018-10-16T00:56:17.893Z,72.3
2018-10-16T00:57:17.759Z,72.3
2018-10-16T00:58:17.916Z,72.36
2018-10-16T00:59:17.755Z,72.47
2018-10-16T01:00:17.716Z,72.19
2018-10-16T01:01:17.777Z,72.07
2018-10-16T01:02:17.828Z,72.22
2018-10-16T01:03:17.827Z,72.35
2018-10-16T01:04:17.846Z,72.44
2018-10-16T01:05:17.875Z,72.23
2018-10-16T01:06:17.855Z,72.2
2018-10-16T01:07:17.813Z,72.27
2018-10-16T01:08:17.912Z,72.3
2018-10-16T01:09:17.773Z,72.36
2018-10-16T01:10:17.771Z,72.36
2018-10-16T01:11:18.038Z,72.41
2018-10-16T01:12:17.842Z,72.43
2018-10-16T01:13:18.377Z,72.43
2018-10-16T01:14:17.795Z,72.32
2018-10-16T01:15:17.848Z,72.35
2018-10-16T01:16:17.913Z,72.34
2018-10-16T01:17:17.776Z,72.39
2018-10-16T01:18:17.770Z,72.59
2018-10-16T01:19:17.803Z,72.65
2018-10-16T01:20:17.727Z,72.54
2018-10-16T01:21:17.956Z,72.43
2018-10-16T01:22:17.926Z,72.43
2018-10-16T01:23:17.721Z,72.26
2018-10-16T01:24:17.768Z,72.41
2018-10-16T01:25:17.783Z,72.23
2018-10-16T01:26:17.815Z,72.17
2018-10-16T01:27:18.123Z,72.28
2018-10-16T01:28:17.875Z,71.94
2018-10-16T01:29:17.764Z,72.2
2018-10-16T01:30:17.820Z,72.13
2018-10-16T01:31:17.984Z,72.2
2018-10-16T01:32:18.055Z,72.32
2018-10-16T01:33:18.194Z,72.52
2018-10-16T01:34:17.763Z,72.43
2018-10-16T01:35:17.834Z,72.43
2018-10-16T01:36:17.748Z,72.32
2018-10-16T01:37:17.901Z,72.36
2018-10-16T01:38:17.924Z,72.22
2018-10-16T01:39:17.715Z,72.52
2018-10-16T01:40:17.801Z,72.35
2018-10-16T01:41:17.671Z,72.6
2018-10-16T01:42:17.814Z,72.21
2018-10-16T01:43:17.809Z,72.45
2018-10-16T01:44:17.875Z,72.16
2018-10-16T01:45:17.810Z,72.8
2018-10-16T01:46:17.819Z,72.26
2018-10-16T01:47:17.783Z,72.54
2018-10-16T01:48:17.689Z,72.99
2018-10-16T01:49:17.731Z,73.1
2018-10-16T01:50:17.801Z,73.04
2018-10-16T01:51:17.718Z,73.13
2018-10-16T01:52:17.841Z,73.08
2018-10-16T01:53:17.723Z,73.1
2018-10-16T01:54:17.739Z,73.27
2018-10-16T01:55:17.890Z,72.78
2018-10-16T01:56:17.810Z,73
2018-10-16T01:57:17.744Z,73.09
2018-10-16T01:58:18.057Z,73.01
2018-10-16T01:59:17.704Z,73.01
2018-10-16T02:00:17.677Z,73.26
2018-10-16T02:01:17.882Z,73.28
2018-10-16T02:02:17.670Z,73.32
2018-10-16T02:03:17.679Z,73.44
2018-10-16T02:04:17.729Z,73.45
2018-10-16T02:05:17.682Z,73.43
2018-10-16T02:06:17.743Z,73.52
2018-10-16T02:07:17.773Z,73.44
2018-10-16T02:08:17.699Z,73.27
2018-10-16T02:09:18.327Z,73.22
2018-10-16T02:10:17.790Z,73.14
2018-10-16T02:11:17.769Z,72.99
2018-10-16T02:12:17.655Z,72.93
2018-10-16T02:13:17.763Z,72.82
2018-10-16T02:14:17.726Z,72.81
2018-10-16T02:15:17.676Z,72.93
2018-10-16T02:16:17.885Z,73.12
2018-10-16T02:17:18.024Z,72.88
2018-10-16T02:18:18.105Z,73.66
2018-10-16T02:19:17.672Z,73.46
2018-10-16T02:20:17.698Z,73.45
2018-10-16T02:21:17.725Z,73.43
2018-10-16T02:22:17.878Z,73.61
2018-10-16T02:23:17.780Z,73.4
2018-10-16T02:24:17.796Z,73.66
2018-10-16T02:25:17.925Z,74.12
2018-10-16T02:26:17.772Z,73.88
2018-10-16T02:27:17.643Z,73.64
2018-10-16T02:28:17.679Z,73.57
2018-10-16T02:29:17.973Z,73.97
2018-10-16T02:30:17.973Z,73.92
2018-10-16T02:31:17.640Z,73.94
2018-10-16T02:32:17.628Z,73.69
2018-10-16T02:33:17.620Z,74.25
2018-10-16T02:34:17.647Z,74.16
2018-10-16T02:35:17.740Z,74.11
2018-10-16T02:36:17.716Z,73.99
2018-10-16T02:37:17.670Z,74.06
2018-10-16T02:38:17.595Z,74.05
2018-10-16T02:39:17.873Z,73.98
2018-10-16T02:40:17.653Z,74.03
2018-10-16T02:41:17.581Z,74.06
2018-10-16T02:42:17.653Z,73.92
2018-10-16T02:43:17.676Z,73.92
2018-10-16T02:44:17.705Z,73.88
2018-10-16T02:45:17.697Z,73.77
2018-10-16T02:46:17.648Z,73.41
2018-10-16T02:47:17.649Z,73.72
2018-10-16T02:48:17.689Z,73.93
2018-10-16T02:49:17.891Z,73.75
2018-10-16T02:50:17.629Z,74.12
2018-10-16T02:51:17.674Z,74.02
2018-10-16T02:52:17.686Z,73.62
2018-10-16T02:53:18.056Z,74.13
2018-10-16T02:54:17.702Z,74.06
2018-10-16T02:55:17.689Z,74.01
2018-10-16T02:56:17.699Z,73.71
2018-10-16T02:57:17.666Z,73.5
2018-10-16T02:58:17.851Z,74.12
2018-10-16T02:59:17.791Z,73.69
2018-10-16T03:00:17.707Z,73.75
2018-10-16T03:01:17.609Z,73.32
2018-10-16T03:02:17.820Z,73.7
2018-10-16T03:03:17.656Z,73.86
2018-10-16T03:04:17.603Z,73.42
2018-10-16T03:05:18.621Z,73.26
2018-10-16T03:06:17.681Z,73.58
2018-10-16T03:07:18.009Z,73.23
2018-10-16T03:08:17.655Z,73.53
2018-10-16T03:09:17.761Z,73.53
2018-10-16T03:10:17.710Z,74.39
2018-10-16T03:11:17.776Z,74.23
2018-10-16T03:12:17.751Z,73.89
2018-10-16T03:13:17.657Z,74.02
2018-10-16T03:14:17.694Z,73.57
2018-10-16T03:15:17.662Z,74.61
2018-10-16T03:16:17.813Z,74.63
2018-10-16T03:17:17.779Z,74.02
2018-10-16T03:18:17.742Z,73.84
2018-10-16T03:19:17.745Z,73.94
2018-10-16T03:20:18.044Z,74.6
2018-10-16T03:21:18.019Z,74.31
2018-10-16T03:22:18.061Z,74.38
2018-10-16T03:24:18.071Z,74.44
2018-10-16T03:25:17.668Z,74.22
2018-10-16T03:26:17.583Z,73.95
2018-10-16T03:27:17.588Z,74.02
2018-10-16T03:28:17.529Z,74.33
2018-10-16T03:29:17.639Z,74.42
2018-10-16T03:30:17.641Z,74.36
2018-10-16T03:31:17.509Z,74.44
2018-10-16T03:32:17.686Z,74.27
2018-10-16T03:33:17.641Z,74.55
2018-10-16T03:34:17.495Z,74.08
2018-10-16T03:35:17.457Z,74.41
2018-10-16T03:36:17.458Z,74.1
2018-10-16T03:37:17.593Z,74.24
2018-10-16T03:38:17.726Z,74.49
2018-10-16T03:39:17.468Z,74.32
2018-10-16T03:40:17.505Z,74.68
2018-10-16T03:41:17.516Z,74.26
2018-10-16T03:42:17.551Z,74.77
2018-10-16T03:43:17.487Z,74.78
2018-10-16T03:44:17.466Z,75.32
2018-10-16T03:45:17.470Z,75.42
2018-10-16T03:46:17.530Z,75.1
2018-10-16T03:47:17.459Z,74.81
2018-10-16T03:48:17.537Z,74.73
2018-10-16T03:49:17.670Z,75.08
2018-10-16T03:50:17.475Z,74.91
2018-10-16T03:51:17.488Z,74.92
2018-10-16T03:52:17.493Z,74.67
2018-10-16T03:53:18.038Z,74.59
2018-10-16T03:54:17.530Z,74.28
2018-10-16T03:55:17.463Z,74.86
2018-10-16T03:56:17.616Z,74.52
2018-10-16T03:57:17.779Z,74.97
2018-10-16T03:58:17.509Z,75.54
2018-10-16T03:59:17.461Z,75.46
2018-10-16T04:00:17.443Z,76.12
2018-10-16T04:01:17.475Z,76.19
2018-10-16T04:02:17.503Z,76.06
2018-10-16T04:03:17.585Z,75.99
2018-10-16T04:04:17.439Z,75.66
2018-10-16T04:05:17.429Z,75.77
2018-10-16T04:06:17.421Z,76
2018-10-16T04:07:17.652Z,76.22
2018-10-16T04:08:17.641Z,75.79
2018-10-16T04:09:17.441Z,75.86
2018-10-16T04:10:17.416Z,75.74
2018-10-16T04:11:17.445Z,75.62
2018-10-16T04:12:17.424Z,75.73
2018-10-16T04:13:17.472Z,75.41
2018-10-16T04:14:17.470Z,75.12
2018-10-16T04:15:17.550Z,75.59
2018-10-16T04:16:17.469Z,75.49
2018-10-16T04:17:17.528Z,75.28
2018-10-16T04:18:17.371Z,75.06
2018-10-16T04:19:17.507Z,75.14
2018-10-16T04:20:17.410Z,75.91
2018-10-16T04:21:17.764Z,75.97
2018-10-16T04:22:17.852Z,75.79
2018-10-16T04:23:17.470Z,76
2018-10-16T04:24:17.389Z,75.82
2018-10-16T04:25:17.520Z,75.5
2018-10-16T04:26:17.457Z,75.68
2018-10-16T04:27:17.438Z,75.4
2018-10-16T04:28:17.809Z,75.72
2018-10-16T04:29:17.843Z,75.6
2018-10-16T04:30:17.465Z,75.34
2018-10-16T04:31:17.464Z,75.21
2018-10-16T04:32:17.422Z,75.56
2018-10-16T04:33:17.437Z,75.78
2018-10-16T04:34:17.446Z,75.48
2018-10-16T04:35:17.418Z,75.51
2018-10-16T04:36:17.542Z,76.1
2018-10-16T04:37:17.522Z,76.14
2018-10-16T04:38:18.515Z,76.14
2018-10-16T04:39:17.519Z,75.89
2018-10-16T04:40:17.463Z,76.08
2018-10-16T04:41:17.670Z,75.98
2018-10-16T04:42:17.402Z,76.3
2018-10-16T04:43:17.433Z,76.29
2018-10-16T04:44:17.435Z,76.45
2018-10-16T04:46:17.383Z,76.44
2018-10-16T04:47:17.404Z,76.48
2018-10-16T04:48:17.405Z,76.27
2018-10-16T04:49:17.382Z,75.98
2018-10-16T04:50:17.455Z,76.59
2018-10-16T04:51:17.424Z,76.32
2018-10-16T04:52:17.406Z,76.6
2018-10-16T04:53:17.342Z,76.19
2018-10-16T04:54:17.687Z,76.38
2018-10-16T04:55:18.225Z,76.15
2018-10-16T04:56:17.447Z,76.62
2018-10-16T04:57:17.406Z,76.89
2018-10-16T04:58:17.328Z,76.97
2018-10-16T04:59:17.494Z,76.93
2018-10-16T05:00:17.329Z,76.86
2018-10-16T05:01:17.609Z,77.07
2018-10-16T05:02:17.385Z,77.01
2018-10-16T05:03:17.350Z,77.21
2018-10-16T05:04:18.343Z,76.93
2018-10-16T05:05:17.405Z,77.37
2018-10-16T05:07:17.375Z,77.6
2018-10-16T05:08:17.379Z,77.76
2018-10-16T05:09:17.406Z,78.08
2018-10-16T05:10:17.467Z,77.91
2018-10-16T05:11:17.668Z,77.88
2018-10-16T05:12:17.325Z,77.92
2018-10-16T05:13:17.933Z,77.59
2018-10-16T05:14:17.423Z,77.63
2018-10-16T05:15:17.654Z,77.96
2018-10-16T05:16:17.693Z,77.42
2018-10-16T05:17:17.506Z,77.72
2018-10-16T05:18:17.378Z,77.51
2018-10-16T05:19:18.452Z,77.61
2018-10-16T05:20:17.435Z,77.29
2018-10-16T05:21:17.344Z,77.53
2018-10-16T05:22:17.450Z,77.32
2018-10-16T05:23:17.722Z,76.99
2018-10-16T05:24:17.376Z,77.03
2018-10-16T05:25:17.395Z,77.95
2018-10-16T05:26:17.403Z,78.27
2018-10-16T05:27:17.525Z,78.78
2018-10-16T05:28:17.591Z,79.07
2018-10-16T05:29:17.404Z,79.19
2018-10-16T05:30:17.328Z,78.85
2018-10-16T05:31:18.355Z,79.12
2018-10-16T05:32:17.619Z,78.52
2018-10-16T05:33:41.722Z,77.88
2018-10-16T05:34:41.750Z,77.54
2018-10-16T05:35:41.809Z,77.27
2018-10-16T05:36:41.650Z,76.84
2018-10-16T05:37:41.701Z,77.06
2018-10-16T05:38:41.662Z,77.25
2018-10-16T05:39:42.057Z,77.06
2018-10-16T05:40:41.641Z,76.7
2018-10-16T05:41:41.692Z,76.47
2018-10-16T05:42:41.707Z,76.37
2018-10-16T05:43:41.681Z,76.66
2018-10-16T05:44:42.027Z,76.65
2018-10-16T05:45:41.684Z,76.52
2018-10-16T05:46:41.868Z,76.34
2018-10-16T05:47:41.818Z,75.98
2018-10-16T05:48:41.802Z,76.06
2018-10-16T05:49:41.704Z,76.02
2018-10-16T05:50:41.838Z,75.93
2018-10-16T05:51:42.077Z,75.99
2018-10-16T05:52:41.820Z,75.94
2018-10-16T05:53:41.662Z,75.98
2018-10-16T05:54:41.705Z,75.99
2018-10-16T05:55:41.850Z,75.97
2018-10-16T05:56:41.754Z,75.96
2018-10-16T05:57:41.831Z,76.09
2018-10-16T05:58:41.761Z,76.15
2018-10-16T05:59:41.803Z,76.15
2018-10-16T06:00:41.621Z,76.28
2018-10-16T06:01:41.711Z,76.38
2018-10-16T06:02:42.204Z,76.35
2018-10-16T06:03:41.674Z,76.32
2018-10-16T06:04:41.667Z,76.53
2018-10-16T06:05:42.099Z,76.21
2018-10-16T06:06:41.690Z,76.46
2018-10-16T06:07:41.689Z,76.45
2018-10-16T06:08:41.779Z,76.24
2018-10-16T06:09:41.649Z,76.48
2018-10-16T06:10:41.885Z,76.4
2018-10-16T06:11:41.834Z,76.39
2018-10-16T06:12:41.672Z,76.48
2018-10-16T06:13:41.738Z,76.26
2018-10-16T06:14:41.868Z,76.39
2018-10-16T06:15:41.610Z,76.35
2018-10-16T06:16:41.618Z,76.3
2018-10-16T06:17:41.601Z,76.46
2018-10-16T06:18:42.049Z,76.79
2018-10-16T06:19:41.718Z,76.95
2018-10-16T06:20:41.677Z,77.19
2018-10-16T06:21:41.795Z,76.77
2018-10-16T06:22:41.689Z,76.51
2018-10-16T06:23:41.642Z,76.23
2018-10-16T06:24:41.619Z,76.5
2018-10-16T06:25:41.657Z,76.28
2018-10-16T06:26:41.963Z,76.14
2018-10-16T06:27:42.117Z,76.37
2018-10-16T06:28:41.712Z,76.7
2018-10-16T06:29:41.755Z,76.9
2018-10-16T06:30:41.991Z,77.03
2018-10-16T06:31:41.629Z,76.71
2018-10-16T06:32:41.725Z,76.52
2018-10-16T06:33:41.828Z,76.35
2018-10-16T06:34:41.805Z,76.33
2018-10-16T06:35:41.696Z,76.48
2018-10-16T06:36:41.760Z,76.46
2018-10-16T06:37:41.963Z,76.55
2018-10-16T06:38:41.650Z,76.55
2018-10-16T06:39:41.646Z,76.33
2018-10-16T06:40:42.238Z,76.28
2018-10-16T06:41:42.095Z,75.92
2018-10-16T06:42:41.870Z,76.36
2018-10-16T06:43:41.932Z,76.34
2018-10-16T06:44:42.029Z,76.56
2018-10-16T06:45:41.633Z,76.19
2018-10-16T06:46:42.766Z,76.48
2018-10-16T06:47:42.340Z,76.8
2018-10-16T06:48:44.412Z,76.36
2018-10-16T06:49:41.593Z,76.29
2018-10-16T06:50:41.558Z,76.36
2018-10-16T06:51:41.553Z,76.84
2018-10-16T06:52:41.599Z,76.68
2018-10-16T06:53:41.624Z,76.2
2018-10-16T06:54:41.811Z,76.33
2018-10-16T06:55:41.544Z,76.84
2018-10-16T06:56:41.625Z,76.45
2018-10-16T06:57:41.607Z,76.42
2018-10-16T06:58:41.572Z,76.91
2018-10-16T06:59:41.610Z,76.9
2018-10-16T07:00:41.607Z,76.88
2018-10-16T07:01:41.584Z,76.72
2018-10-16T07:02:41.570Z,76.96
2018-10-16T07:03:41.552Z,77.02
2018-10-16T07:04:41.570Z,77.04
2018-10-16T07:05:41.576Z,76.81
2018-10-16T07:06:41.768Z,76.65
2018-10-16T07:07:41.605Z,76.8
2018-10-16T07:08:41.846Z,77.34
2018-10-16T07:09:41.847Z,76.77
2018-10-16T07:10:41.574Z,76.81
2018-10-16T07:11:41.656Z,76.61
2018-10-16T07:12:41.528Z,76.69
2018-10-16T07:13:41.535Z,76.86
2018-10-16T07:14:41.703Z,76.38
2018-10-16T07:15:41.665Z,76.37
2018-10-16T07:17:41.533Z,76.63
2018-10-16T07:18:41.582Z,76.71
2018-10-16T07:19:41.599Z,76.86
2018-10-16T07:20:41.712Z,76.47
2018-10-16T07:21:42.177Z,76.34
2018-10-16T07:22:41.580Z,76.36
2018-10-16T07:23:41.924Z,76.1
2018-10-16T07:24:41.598Z,76.32
2018-10-16T07:25:41.615Z,76.03
2018-10-16T07:26:41.591Z,76.66
2018-10-16T07:27:41.738Z,76.12
2018-10-16T07:28:41.572Z,76.13
2018-10-16T07:29:41.516Z,76
2018-10-16T07:30:41.691Z,76.16
2018-10-16T07:31:41.573Z,76.57
2018-10-16T07:32:41.807Z,76.13
2018-10-16T07:33:41.638Z,76.37
2018-10-16T07:34:41.580Z,75.99
2018-10-16T07:35:41.950Z,76.23
2018-10-16T07:36:41.905Z,76.49
2018-10-16T07:37:41.774Z,76.37
2018-10-16T07:38:41.819Z,76.13
2018-10-16T07:39:41.857Z,76.25
2018-10-16T07:40:41.530Z,76.47
2018-10-16T07:41:41.562Z,76.8
2018-10-16T07:42:41.635Z,76.95
2018-10-16T07:43:41.498Z,77.24
2018-10-16T07:44:41.645Z,77.11
2018-10-16T07:45:41.510Z,77.15
2018-10-16T07:46:41.483Z,77.17
2018-10-16T07:47:41.556Z,77.07
2018-10-16T07:48:42.593Z,77.23
2018-10-16T07:49:41.497Z,77.07
2018-10-16T07:50:41.563Z,77.2
2018-10-16T07:51:41.494Z,77
2018-10-16T07:52:41.495Z,77.01
2018-10-16T07:53:41.585Z,77.27
2018-10-16T07:54:41.558Z,77.17
2018-10-16T07:55:41.752Z,78.44
2018-10-16T07:56:41.563Z,78.89
2018-10-16T07:57:41.716Z,78.86
2018-10-16T07:58:41.541Z,78.71
2018-10-16T07:59:41.656Z,78.37
2018-10-16T08:00:41.660Z,78.28
2018-10-16T08:01:41.869Z,78.34
2018-10-16T08:02:41.614Z,78.29
2018-10-16T08:03:41.567Z,78.13
2018-10-16T08:04:41.492Z,78.16
2018-10-16T08:05:41.560Z,78.1
2018-10-16T08:06:41.728Z,77.97
2018-10-16T08:07:41.502Z,78.46
2018-10-16T08:08:41.640Z,78.57
2018-10-16T08:09:41.587Z,79.1
2018-10-16T08:11:41.671Z,78.84
2018-10-16T08:12:42.190Z,78.77
2018-10-16T08:13:41.662Z,79.05
2018-10-16T08:14:41.546Z,78.94
2018-10-16T08:15:41.582Z,79.45
2018-10-16T08:16:41.614Z,79.54
2018-10-16T08:17:41.517Z,79.43
2018-10-16T08:18:41.708Z,79.76
2018-10-16T08:19:41.543Z,79.61
2018-10-16T08:20:41.451Z,79.53
2018-10-16T08:21:41.951Z,79.5
2018-10-16T08:22:41.503Z,79.47
2018-10-16T08:23:41.499Z,79.22
2018-10-16T08:24:41.551Z,79.09
2018-10-16T08:25:41.465Z,78.67
2018-10-16T08:26:41.574Z,78.89
2018-10-16T08:27:41.494Z,78.87
2018-10-16T08:29:41.446Z,78.43
2018-10-16T08:30:41.895Z,78.58
2018-10-16T08:31:41.426Z,78.57
2018-10-16T08:32:41.444Z,78.4
2018-10-16T08:33:41.425Z,78.13
2018-10-16T08:34:41.506Z,77.24
2018-10-16T08:35:41.615Z,76.74
2018-10-16T08:36:41.976Z,76.88
2018-10-16T08:37:41.428Z,76.77
2018-10-16T08:38:41.405Z,76.56
2018-10-16T08:39:41.435Z,76.48
2018-10-16T08:40:41.449Z,76.36
2018-10-16T08:41:41.608Z,76.26
2018-10-16T08:42:41.846Z,76.68
2018-10-16T08:43:41.466Z,76.5
2018-10-16T08:44:41.972Z,76.31
2018-10-16T08:45:41.593Z,76.19
2018-10-16T08:46:41.554Z,76.23
2018-10-16T08:47:42.440Z,75.93
2018-10-16T08:48:41.708Z,75.49
2018-10-16T08:49:41.561Z,75.09
2018-10-16T08:50:41.453Z,74.59
2018-10-16T08:51:41.429Z,74.47
2018-10-16T08:52:41.423Z,74.02
2018-10-16T08:53:41.643Z,74.06
2018-10-16T08:54:41.610Z,73.76
2018-10-16T08:55:41.555Z,73.75
2018-10-16T08:56:41.464Z,72.9
2018-10-16T08:57:41.456Z,73.25
2018-10-16T08:58:41.466Z,73.48
2018-10-16T08:59:41.434Z,73.41
2018-10-16T09:00:41.490Z,73.5
2018-10-16T09:01:41.496Z,73.17
2018-10-16T09:02:41.568Z,73.16
2018-10-16T09:03:41.436Z,72.12
2018-10-16T09:04:41.801Z,72.6
2018-10-16T09:05:41.414Z,72.62
2018-10-16T09:06:41.807Z,72.54
2018-10-16T09:07:41.422Z,71.2
2018-10-16T09:08:41.645Z,71.23
2018-10-16T09:09:41.473Z,71.12
2018-10-16T09:10:41.665Z,71.12
2018-10-16T09:11:41.529Z,70.7
2018-10-16T09:12:41.392Z,70.57
2018-10-16T09:13:41.428Z,70.21
2018-10-16T09:14:41.455Z,70.65
2018-10-16T09:15:41.430Z,70.29
2018-10-16T09:16:41.410Z,70.17
2018-10-16T09:17:41.471Z,70.48
2018-10-16T09:18:41.484Z,70.57
2018-10-16T09:19:41.790Z,70.13
2018-10-16T09:20:41.450Z,69.96
2018-10-16T09:21:41.395Z,70.07
2018-10-16T09:22:41.358Z,70.26
2018-10-16T09:23:41.410Z,70.5
2018-10-16T09:24:42.009Z,70.21
2018-10-16T09:25:41.850Z,69.69
2018-10-16T09:26:41.416Z,68.56
2018-10-16T09:27:41.568Z,67.98
2018-10-16T09:28:41.336Z,67.52
2018-10-16T09:29:41.361Z,67.46
2018-10-16T09:30:41.735Z,66.87
2018-10-16T09:31:41.379Z,66.09
2018-10-16T09:32:41.380Z,65.88
2018-10-16T09:33:41.700Z,65.98
2018-10-16T09:34:41.352Z,66.75
2018-10-16T09:35:41.355Z,66.49
2018-10-16T09:36:41.404Z,66.02
2018-10-16T09:37:42.435Z,66.03
2018-10-16T09:38:41.631Z,66.28
2018-10-16T09:39:41.413Z,66.7
2018-10-16T09:40:41.418Z,66.29
2018-10-16T09:41:41.404Z,65.89
2018-10-16T09:42:41.546Z,65.21
2018-10-16T09:43:41.540Z,66.02
2018-10-16T09:44:41.560Z,66.58
2018-10-16T09:45:41.581Z,66.19
2018-10-16T09:46:41.569Z,65.62
2018-10-16T09:47:42.266Z,65.36
2018-10-16T09:48:41.692Z,65.81
2018-10-16T09:49:41.981Z,65.62
2018-10-16T09:50:41.486Z,65.17
2018-10-16T09:51:41.414Z,65.31
2018-10-16T09:52:41.799Z,64.15
2018-10-16T09:53:41.353Z,63.19
2018-10-16T09:54:41.333Z,63.43
2018-10-16T09:55:41.448Z,63.64
2018-10-16T09:56:41.458Z,62.89
2018-10-16T09:57:41.746Z,62.77
2018-10-16T09:58:41.328Z,62.68
2018-10-16T09:59:41.451Z,63.72
2018-10-16T10:00:41.532Z,63.44
2018-10-16T10:01:41.470Z,63.35
2018-10-16T10:02:41.484Z,62.5
2018-10-16T10:03:41.485Z,62.85
2018-10-16T10:04:41.484Z,63.8
2018-10-16T10:05:41.387Z,64.14
2018-10-16T10:06:41.398Z,64
2018-10-16T10:07:41.411Z,63.65
2018-10-16T10:08:41.509Z,63
2018-10-16T10:09:41.416Z,62.61
2018-10-16T10:10:41.309Z,62.02
2018-10-16T10:11:41.364Z,61.34
2018-10-16T10:12:41.537Z,61.94
2018-10-16T10:13:41.310Z,62.6
2018-10-16T10:14:41.498Z,62.18
2018-10-16T10:15:41.350Z,60.84
2018-10-16T10:16:41.589Z,59.94
2018-10-16T10:17:41.412Z,61.32
2018-10-16T10:18:41.465Z,60.51
2018-10-16T10:19:41.620Z,61.35
2018-10-16T10:20:41.423Z,60.77
2018-10-16T10:21:41.383Z,61.14
2018-10-16T10:22:41.325Z,60.61
2018-10-16T10:23:41.320Z,60.56
2018-10-16T10:24:41.292Z,60.65
2018-10-16T10:25:41.311Z,60.93
2018-10-16T10:26:41.316Z,60.51
2018-10-16T10:27:41.464Z,59.95
2018-10-16T10:28:41.365Z,59.69
2018-10-16T10:29:41.808Z,60.88
2018-10-16T10:30:41.668Z,59.33
2018-10-16T10:31:41.326Z,58.74
2018-10-16T10:32:41.600Z,58.43
2018-10-16T10:33:41.801Z,57.63
2018-10-16T10:34:41.305Z,57.63
2018-10-16T10:35:41.605Z,56.95
2018-10-16T10:36:41.469Z,57.1
2018-10-16T10:37:41.328Z,56.95
2018-10-16T10:38:41.355Z,58.02
2018-10-16T10:39:41.335Z,58.53
2018-10-16T10:40:41.418Z,58.59
2018-10-16T10:41:41.326Z,58.08
2018-10-16T10:42:41.433Z,58.72
2018-10-16T10:43:41.276Z,58.05
2018-10-16T10:44:41.380Z,58.75
2018-10-16T10:45:41.458Z,57.28
2018-10-16T10:46:41.257Z,57.87
2018-10-16T10:47:41.710Z,56.96
2018-10-16T10:48:41.310Z,55.9
2018-10-16T10:49:41.377Z,56.01
2018-10-16T10:50:43.308Z,55.83
2018-10-16T10:51:42.763Z,56.09
2018-10-16T10:52:41.407Z,55.84
2018-10-16T10:53:41.261Z,55.64
2018-10-16T10:54:41.265Z,55.84
2018-10-16T10:55:41.286Z,55.65
2018-10-16T10:56:41.772Z,55.63
2018-10-16T10:57:41.475Z,55.7
2018-10-16T10:58:41.451Z,55.87
2018-10-16T10:59:41.316Z,56.43
2018-10-16T11:00:41.307Z,55.77
2018-10-16T11:01:41.458Z,55.18
2018-10-16T11:02:41.282Z,55.43
2018-10-16T11:03:42.845Z,55.65
2018-10-16T11:04:41.381Z,56.06
2018-10-16T11:05:41.408Z,54.88
2018-10-16T11:06:41.230Z,54.68
2018-10-16T11:07:41.786Z,54.68
2018-10-16T11:08:41.390Z,54
2018-10-16T11:09:41.270Z,53.96
2018-10-16T11:10:41.372Z,54.03
2018-10-16T11:11:40.857Z,54.43
2018-10-16T11:12:41.439Z,54.87
2018-10-16T11:13:41.220Z,53.83
2018-10-16T11:14:41.596Z,54.32
2018-10-16T11:15:41.509Z,54.32
2018-10-16T11:16:41.230Z,53.95
2018-10-16T11:17:41.337Z,54.7
2018-10-16T11:18:41.323Z,55.18
2018-10-16T11:19:41.319Z,54.16
2018-10-16T11:20:41.384Z,53.49
2018-10-16T11:21:41.265Z,53.43
2018-10-16T11:22:41.367Z,53.33
2018-10-16T11:23:41.286Z,53.11
2018-10-16T11:24:41.435Z,53.66
2018-10-16T11:25:41.263Z,53.44
2018-10-16T11:26:41.365Z,54.09
2018-10-16T11:27:41.462Z,53.78
2018-10-16T11:28:41.281Z,53.4
2018-10-16T11:29:41.428Z,53.47
2018-10-16T11:30:41.520Z,52.95
2018-10-16T11:31:41.285Z,52.52
2018-10-16T11:32:41.245Z,52.23
2018-10-16T11:33:41.237Z,52.32
2018-10-16T11:34:41.326Z,53.32
2018-10-16T11:35:41.281Z,53.09
2018-10-16T11:36:41.607Z,53.29
2018-10-16T11:37:41.729Z,52.62
2018-10-16T11:38:41.259Z,52.48
2018-10-16T11:39:41.186Z,52.3
2018-10-16T11:40:41.199Z,52.82
2018-10-16T11:41:41.258Z,52.67
2018-10-16T11:42:41.572Z,52.61
2018-10-16T11:43:41.170Z,52.11
2018-10-16T11:44:41.471Z,51.63
2018-10-16T11:45:41.641Z,51.76
2018-10-16T11:46:41.412Z,51.92
2018-10-16T11:47:41.297Z,51.84
2018-10-16T11:48:41.283Z,52.06
2018-10-16T11:49:41.195Z,52.08
2018-10-16T11:50:41.523Z,52.02
2018-10-16T11:51:41.239Z,52.65
2018-10-16T11:52:41.538Z,52.98
2018-10-16T11:53:41.222Z,52.99
2018-10-16T11:54:41.683Z,53.23
2018-10-16T11:55:41.222Z,52.76
2018-10-16T11:56:41.295Z,52.6
2018-10-16T11:57:41.448Z,53.18
2018-10-16T11:58:41.233Z,51.97
2018-10-16T11:59:41.206Z,51.77
2018-10-16T12:00:41.378Z,52.34
2018-10-16T12:01:41.183Z,52.16
2018-10-16T12:02:41.696Z,51.92
2018-10-16T12:03:41.198Z,51.78
2018-10-16T12:04:41.296Z,51.75
2018-10-16T12:05:41.261Z,52.06
2018-10-16T12:06:41.239Z,52.37
2018-10-16T12:07:41.247Z,52.25
2018-10-16T12:08:41.579Z,51.61
2018-10-16T12:09:41.445Z,51.56
2018-10-16T12:10:41.447Z,51.46
2018-10-16T12:11:41.223Z,51.29
2018-10-16T12:12:41.217Z,51.51
2018-10-16T12:13:41.232Z,51.72
2018-10-16T12:14:41.426Z,51.16
2018-10-16T12:15:41.191Z,50.74
2018-10-16T12:16:41.806Z,50.72
2018-10-16T12:17:41.370Z,50.8
2018-10-16T12:18:41.215Z,51.6
2018-10-16T12:19:42.079Z,50.7
2018-10-16T12:20:41.291Z,50.42
2018-10-16T12:21:41.151Z,50.33
2018-10-16T12:22:41.327Z,50.37
2018-10-16T12:23:42.295Z,50.43
2018-10-16T12:24:41.313Z,51.36
2018-10-16T12:25:41.202Z,50.99
2018-10-16T12:26:41.208Z,50.13
2018-10-16T12:27:41.371Z,50.04
2018-10-16T12:28:41.160Z,49.87
2018-10-16T12:29:41.237Z,49.96
2018-10-16T12:30:41.384Z,50.38
2018-10-16T12:31:41.150Z,49.83
2018-10-16T12:32:41.331Z,48.97
2018-10-16T12:33:41.272Z,49.52
2018-10-16T12:34:41.257Z,49.85
2018-10-16T12:35:41.380Z,50.31
2018-10-16T12:36:41.184Z,49.95
2018-10-16T12:37:41.267Z,50.21
2018-10-16T12:38:41.312Z,50.11
2018-10-16T12:39:41.463Z,50.38
2018-10-16T12:40:41.341Z,50.16
2018-10-16T12:41:41.268Z,50.41
2018-10-16T12:42:41.538Z,50.29
2018-10-16T12:43:42.843Z,50.08
2018-10-16T12:44:41.180Z,50.56
2018-10-16T12:45:42.407Z,50.54
2018-10-16T12:46:41.151Z,50.07
2018-10-16T12:47:41.157Z,50.12
2018-10-16T12:48:41.253Z,50.15
2018-10-16T12:49:41.228Z,50.5
2018-10-16T12:50:41.294Z,50.79
2018-10-16T12:51:41.125Z,50.47
2018-10-16T12:52:41.243Z,49.66
2018-10-16T12:53:41.186Z,49.84
2018-10-16T12:54:41.143Z,50.42
2018-10-16T12:55:41.337Z,50.37
2018-10-16T12:56:41.544Z,50.6
2018-10-16T12:57:41.124Z,50.43
2018-10-16T12:58:41.129Z,50.67
2018-10-16T12:59:41.124Z,50.74
2018-10-16T13:00:41.289Z,50.84
2018-10-16T13:01:41.125Z,51.42